createdAt,value
2023-03-05T00:07:03.884Z,10.10
2023-03-05T00:12:07.175Z,13.40
2023-03-05T00:17:09.799Z,9.70
2023-03-05T00:22:11.683Z,12.80
2023-03-05T00:27:13.394Z,11.20
2023-03-05T00:32:15.443Z,11.90
2023-03-05T00:37:17.319Z,9.00
2023-03-05T00:42:39.129Z,8.10
2023-03-05T00:47:40.864Z,12.10
2023-03-05T00:52:47.124Z,10.90
2023-03-05T00:57:48.885Z,12.50
2023-03-05T01:02:50.862Z,5.70
2023-03-05T01:07:54.144Z,13.70
2023-03-05T01:12:57.687Z,10.00
2023-03-05T01:17:59.334Z,7.70
2023-03-05T01:23:01.914Z,6.80
2023-03-05T01:28:04.416Z,7.10
2023-03-05T01:33:07.401Z,11.40
2023-03-05T01:38:09.169Z,10.90
2023-03-05T01:43:10.985Z,7.40
2023-03-05T01:48:12.713Z,7.00
2023-03-05T01:53:14.433Z,8.20
2023-03-05T01:58:17.388Z,11.20
2023-03-05T02:03:20.764Z,9.30
2023-03-05T02:08:22.679Z,11.80
2023-03-05T02:13:31.635Z,7.00
2023-03-05T02:18:33.792Z,8.50
2023-03-05T02:23:37.097Z,9.90
2023-03-05T02:33:42.637Z,7.50
2023-03-05T02:38:46.899Z,10.70
2023-03-05T02:43:49.338Z,11.40
2023-03-05T02:48:51.537Z,12.50
2023-03-05T02:53:53.540Z,7.20
2023-03-05T02:58:56.347Z,3.60
2023-03-05T03:03:58.969Z,11.80
2023-03-05T03:09:00.718Z,11.70
2023-03-05T03:14:02.524Z,18.50
2023-03-05T03:19:04.227Z,11.40
2023-03-05T03:24:06.281Z,10.10
2023-03-05T03:29:08.060Z,12.60
2023-03-05T03:34:09.839Z,6.50
2023-03-05T03:39:12.131Z,7.20
2023-03-05T03:44:14.762Z,6.00
2023-03-05T03:49:25.185Z,8.80
2023-03-05T03:54:27.143Z,8.30
2023-03-05T03:59:29.206Z,5.50
2023-03-05T04:04:31.117Z,7.30
2023-03-05T04:09:32.928Z,6.80
2023-03-05T04:14:34.636Z,7.50
2023-03-05T04:19:36.419Z,6.80
2023-03-05T04:24:38.716Z,5.40
2023-03-05T04:29:40.415Z,8.50
2023-03-05T04:34:42.726Z,8.70
2023-03-05T04:39:44.414Z,6.40
2023-03-05T04:44:48.345Z,9.50
2023-03-05T04:49:50.107Z,6.20
2023-03-05T04:54:51.795Z,9.50
2023-03-05T04:59:53.690Z,11.40
2023-03-05T05:04:55.397Z,10.10
2023-03-05T05:09:57.155Z,9.90
2023-03-05T05:14:58.982Z,10.90
2023-03-05T05:20:01.749Z,12.50
2023-03-05T05:25:03.893Z,11.00
2023-03-05T05:30:07.644Z,5.60
2023-03-05T05:35:10.686Z,6.30
2023-03-05T05:40:12.952Z,4.70
2023-03-05T05:45:14.847Z,12.00
2023-03-05T05:50:17.896Z,11.50
2023-03-05T05:55:19.562Z,7.30
2023-03-05T06:00:21.827Z,6.40
2023-03-05T06:05:23.613Z,6.00
2023-03-05T06:10:25.699Z,8.70
2023-03-05T06:15:27.664Z,8.40
2023-03-05T06:20:29.344Z,6.70
2023-03-05T06:25:31.079Z,7.60
2023-03-05T06:30:33.049Z,16.50
2023-03-05T06:35:34.856Z,10.00
2023-03-05T06:40:39.425Z,13.40
2023-03-05T06:45:41.425Z,9.80
2023-03-05T06:50:43.098Z,10.00
2023-03-05T06:55:44.773Z,9.30
2023-03-05T07:00:46.604Z,9.30
2023-03-05T07:05:48.285Z,7.80
2023-03-05T07:10:50.048Z,4.20
2023-03-05T07:15:52.238Z,7.90
2023-03-05T07:20:55.513Z,6.80
2023-03-05T07:25:57.249Z,6.80
2023-03-05T07:31:01.676Z,5.20
2023-03-05T07:36:05.029Z,8.30
2023-03-05T07:41:09.692Z,7.30
2023-03-05T07:46:15.021Z,9.60
2023-03-05T07:51:19.955Z,6.90
2023-03-05T07:56:35.161Z,12.70
2023-03-05T08:01:37.937Z,13.20
2023-03-05T08:06:41.545Z,10.50
2023-03-05T08:11:44.027Z,16.10
2023-03-05T08:16:48.354Z,17.90
2023-03-05T08:21:50.310Z,15.30
2023-03-05T08:26:52.064Z,17.40
2023-03-05T08:31:54.572Z,16.70
2023-03-05T08:36:56.274Z,12.60
2023-03-05T08:41:58.370Z,17.20
2023-03-05T08:47:00.097Z,14.50
2023-03-05T08:52:01.950Z,13.80
2023-03-05T08:57:03.932Z,13.50
2023-03-05T09:02:05.987Z,12.30
2023-03-05T09:07:09.055Z,14.70
2023-03-05T09:17:14.285Z,12.60
2023-03-05T09:22:16.277Z,12.40
2023-03-05T09:27:17.940Z,12.40
2023-03-05T09:32:19.670Z,11.10
2023-03-05T09:37:21.427Z,12.10
2023-03-05T09:42:42.373Z,9.70
2023-03-05T09:47:57.015Z,8.10
2023-03-05T09:53:07.855Z,7.40
2023-03-05T09:58:42.761Z,6.40
2023-03-05T10:03:54.274Z,7.00
2023-03-05T10:09:05.292Z,11.00
2023-03-05T10:14:13.943Z,11.80
2023-03-05T10:19:18.331Z,5.70
2023-03-05T10:24:51.368Z,5.70
2023-03-05T10:30:12.925Z,6.10
2023-03-05T10:35:34.646Z,6.80
2023-03-05T10:40:45.782Z,7.70
2023-03-05T10:45:49.828Z,7.40
2023-03-05T10:51:01.279Z,5.40
2023-03-05T10:56:05.615Z,11.00
2023-03-05T11:01:10.146Z,5.90
2023-03-05T11:06:13.555Z,5.50
2023-03-05T11:11:20.804Z,8.30
2023-03-05T11:16:26.633Z,9.20
2023-03-05T11:21:29.241Z,8.50
2023-03-05T11:26:31.043Z,10.50
2023-03-05T11:31:33.770Z,6.20
2023-03-05T11:36:37.839Z,5.20
2023-03-05T11:41:48.807Z,7.60
2023-03-05T11:46:55.764Z,5.40
2023-03-05T11:52:11.487Z,4.60
2023-03-05T11:57:15.567Z,7.90
2023-03-05T12:02:23.705Z,7.00
2023-03-05T12:07:40.039Z,7.20
2023-03-05T12:12:52.982Z,5.10
2023-03-05T12:18:19.780Z,6.90
2023-03-05T12:23:22.960Z,3.00
2023-03-05T12:28:30.588Z,4.10
2023-03-05T12:33:43.391Z,5.60
2023-03-05T12:38:48.147Z,6.00
2023-03-05T12:44:05.141Z,4.60
2023-03-05T12:49:19.014Z,4.50
2023-03-05T12:54:27.565Z,4.90
2023-03-05T12:59:43.658Z,6.10
2023-03-05T13:04:47.208Z,2.60
2023-03-05T13:09:54.749Z,5.10
2023-03-05T13:15:08.828Z,4.90
2023-03-05T13:20:28.748Z,6.10
2023-03-05T13:25:30.407Z,5.30
2023-03-05T13:30:34.569Z,5.40
2023-03-05T13:35:45.619Z,7.30
2023-03-05T13:41:01.094Z,4.60
2023-03-05T13:46:02.913Z,4.90
2023-03-05T13:51:09.613Z,4.10
2023-03-05T13:56:17.830Z,6.50
2023-03-05T14:01:32.008Z,4.10
2023-03-05T14:06:41.414Z,5.20
2023-03-05T14:11:52.950Z,4.60
2023-03-05T14:16:55.269Z,5.10
2023-03-05T14:21:57.119Z,5.00
2023-03-05T14:27:05.531Z,4.60
2023-03-05T14:32:18.114Z,8.10
2023-03-05T14:37:36.708Z,5.70
2023-03-05T14:42:41.306Z,5.60
2023-03-05T14:47:43.543Z,6.80
2023-03-05T14:52:47.233Z,4.50
2023-03-05T14:57:51.595Z,4.50
2023-03-05T15:02:53.516Z,7.30
2023-03-05T15:07:55.497Z,6.50
2023-03-05T15:12:57.335Z,4.20
2023-03-05T15:17:59.409Z,6.60
2023-03-05T15:23:01.226Z,6.40
2023-03-05T15:28:04.177Z,5.50
2023-03-05T15:33:09.731Z,4.90
2023-03-05T15:38:11.504Z,4.70
2023-03-05T15:43:14.418Z,5.60
2023-03-05T15:53:18.050Z,8.60
2023-03-05T15:58:23.065Z,6.00
2023-03-05T16:03:25.144Z,5.70
2023-03-05T16:08:27.090Z,8.60
2023-03-05T16:13:30.467Z,8.10
2023-03-05T16:18:34.297Z,5.90
2023-03-05T16:23:35.990Z,6.30
2023-03-05T16:28:38.133Z,7.40
2023-03-05T16:33:39.870Z,10.70
2023-03-05T16:38:41.632Z,11.20
2023-03-05T16:43:45.210Z,2.60
2023-03-05T16:48:47.076Z,6.30
2023-03-05T16:53:51.276Z,4.30
2023-03-05T16:58:56.424Z,9.90
2023-03-05T17:04:00.090Z,7.30
2023-03-05T17:09:02.854Z,7.70
2023-03-05T17:14:04.665Z,8.80
2023-03-05T17:19:06.530Z,9.60
2023-03-05T17:24:08.392Z,12.50
2023-03-05T17:29:13.900Z,9.80
2023-03-05T17:34:16.676Z,9.20
2023-03-05T17:39:19.100Z,10.90
2023-03-05T17:44:20.869Z,10.70
2023-03-05T17:49:22.649Z,10.20
2023-03-05T17:54:25.731Z,9.60
2023-03-05T17:59:28.247Z,11.60
2023-03-05T18:04:29.965Z,12.10
2023-03-05T18:09:32.244Z,91.30
2023-03-05T18:14:34.082Z,21.40
2023-03-05T18:19:35.863Z,14.50
2023-03-05T18:24:37.600Z,19.40
2023-03-05T18:29:39.667Z,22.70
2023-03-05T18:34:41.966Z,33.30
2023-03-05T18:39:43.802Z,32.60
2023-03-05T18:44:45.900Z,14.40
2023-03-05T18:49:47.522Z,12.60
2023-03-05T18:54:49.250Z,9.90
2023-03-05T18:59:51.139Z,19.20
2023-03-05T19:04:53.006Z,16.50
2023-03-05T19:10:03.512Z,18.50
2023-03-05T19:15:06.258Z,15.50
2023-03-05T19:20:11.674Z,18.80
2023-03-05T19:25:13.779Z,22.40
2023-03-05T19:30:16.296Z,25.30
2023-03-05T19:35:18.824Z,15.90
2023-03-05T19:40:21.062Z,19.70
2023-03-05T19:45:22.993Z,14.20
2023-03-05T19:50:25.104Z,17.70
2023-03-05T19:55:26.844Z,38.90
2023-03-05T20:00:28.806Z,24.00
2023-03-05T20:05:30.568Z,17.60
2023-03-05T20:10:32.179Z,17.30
2023-03-05T20:15:37.106Z,14.60
2023-03-05T20:20:40.348Z,33.80
2023-03-05T20:25:42.123Z,21.80
2023-03-05T20:30:44.016Z,21.00
2023-03-05T20:35:45.734Z,15.60
2023-03-05T20:40:51.313Z,23.90
2023-03-05T20:45:54.643Z,19.60
2023-03-05T20:50:57.104Z,15.70
2023-03-05T20:55:58.872Z,26.40
2023-03-05T21:01:00.672Z,32.40
2023-03-05T21:06:03.950Z,19.80
2023-03-05T21:11:08.488Z,21.10
2023-03-05T21:16:15.476Z,29.90
2023-03-05T21:21:17.680Z,47.70
2023-03-05T21:26:19.432Z,49.20
2023-03-05T21:31:23.135Z,38.20
2023-03-05T21:36:24.911Z,32.80
2023-03-05T21:41:27.595Z,22.90
2023-03-05T21:46:29.889Z,42.40
2023-03-05T21:51:50.761Z,44.50
2023-03-05T21:56:54.872Z,33.20
2023-03-05T22:01:56.784Z,22.60
2023-03-05T22:06:58.849Z,48.40
2023-03-05T22:12:02.001Z,60.30
2023-03-05T22:17:28.588Z,43.10
2023-03-05T22:22:30.418Z,32.00
2023-03-05T22:27:33.104Z,25.10
2023-03-05T22:32:38.153Z,22.90
2023-03-05T22:37:41.641Z,39.90
2023-03-05T22:42:45.550Z,36.80
2023-03-05T22:47:49.405Z,22.80
2023-03-05T22:52:52.599Z,20.10
2023-03-05T22:57:54.348Z,50.00
2023-03-05T23:02:56.673Z,40.40
2023-03-05T23:07:58.520Z,29.40
2023-03-05T23:13:01.171Z,31.40
2023-03-05T23:18:06.566Z,19.20
2023-03-05T23:23:08.645Z,35.50
2023-03-05T23:28:10.350Z,38.00
2023-03-05T23:33:19.490Z,23.70
2023-03-05T23:38:22.221Z,19.10
2023-03-05T23:43:25.103Z,19.70
2023-03-05T23:48:28.746Z,33.50
2023-03-05T23:53:32.871Z,28.00
2023-03-05T23:58:36.115Z,30.90
